Time;durP1;ratioP1;P1;durP2;ratioP2;P2;SDS_P1;SDS_P2;PMS_P1;PMS_P2;Temp;Humidity;BMP_temperature;BMP_pressure;BME280_temperature;BME280_humidity;BME280_pressure;Samples;Min_cycle;Max_cycle;Signal;HPM_P1;HPM_P2
2021/12/16 00:08:39;;;;;;;;;;;8.70;99.90;;;;;;5122435;27;20291;-82
2021/12/16 00:33:35;;;;;;;;;;;8.70;99.90;;;;;;5138797;27;20006;-81
2021/12/16 00:35:39;;;;;;;;;;;8.60;99.90;;;;;;5129166;27;20063;-80
2021/12/16 00:38:05;;;;;;;;;;;8.70;99.90;;;;;;5138969;27;19923;-81
2021/12/16 00:40:31;;;;;;;;;;;8.70;99.90;;;;;;5121446;27;19923;-81
2021/12/16 00:43:12;;;;;;;;;;;8.70;99.90;;;;;;5121581;27;20375;-81
2021/12/16 00:45:59;;;;;;;;;;;8.70;99.90;;;;;;5121504;27;19930;-81
2021/12/16 00:48:47;;;;;;;;;;;8.70;99.90;;;;;;5121317;27;19923;-82
2021/12/16 00:54:11;;;;;;;;;;;8.70;99.90;;;;;;5138241;27;20393;-82
2021/12/16 00:56:39;;;;;;;;;;;8.70;99.90;;;;;;5122651;27;19927;-82
2021/12/16 00:59:08;;;;;;;;;;;8.70;99.90;;;;;;5138154;27;19923;-82
2021/12/16 01:33:55;;;;;;;;;;;8.70;99.90;;;;;;5122576;27;19927;-83
2021/12/16 01:49:37;;;;;;;;;;;8.70;99.90;;;;;;5083773;27;19959;-83
2021/12/16 01:52:23;;;;;;;;;;;8.70;99.90;;;;;;5127635;27;19923;-82
2021/12/16 01:57:32;;;;;;;;;;;8.70;99.90;;;;;;5120678;27;19923;-82
2021/12/16 02:00:06;;;;;;;;;;;8.70;99.90;;;;;;5137580;27;20264;-82
2021/12/16 02:02:58;;;;;;;;;;;8.60;99.90;;;;;;5137085;27;19927;-82
2021/12/16 02:05:41;;;;;;;;;;;8.60;99.90;;;;;;5134550;27;19927;-82
2021/12/16 02:08:18;;;;;;;;;;;8.60;99.90;;;;;;5117593;28;19931;-82
2021/12/16 02:10:48;;;;;;;;;;;8.60;99.90;;;;;;5116627;28;19928;-82
2021/12/16 02:27:36;;;;;;;;;;;8.30;99.90;;;;;;5134864;27;19930;-83
2021/12/16 02:37:32;;;;;;;;;;;8.10;99.90;;;;;;5123682;28;20410;-83
2021/12/16 02:39:58;;;;;;;;;;;8.00;99.90;;;;;;5083202;28;19963;-82
2021/12/16 02:42:35;;;;;;;;;;;8.00;99.90;;;;;;5105562;27;19982;-82
2021/12/16 02:50:17;;;;;;;;;;;8.00;99.90;;;;;;5101951;28;19927;-83
2021/12/16 02:52:43;;;;;;;;;;;8.00;99.90;;;;;;5099085;28;19930;-83
2021/12/16 02:55:09;;;;;;;;;;;8.00;99.90;;;;;;5082241;28;20017;-82
2021/12/16 02:57:43;;;;;;;;;;;8.00;99.90;;;;;;5103715;27;19962;-83
2021/12/16 03:00:12;;;;;;;;;;;8.00;99.90;;;;;;5103209;27;19924;-82
2021/12/16 03:02:38;;;;;;;;;;;7.90;99.90;;;;;;5103176;27;19923;-83
2021/12/16 03:05:04;;;;;;;;;;;7.90;99.90;;;;;;5109662;27;19972;-82
2021/12/16 03:07:31;;;;;;;;;;;7.90;99.90;;;;;;5121688;27;19923;-82
2021/12/16 03:15:34;;;;;;;;;;;7.80;99.90;;;;;;5140026;27;19936;-83
2021/12/16 03:18:20;;;;;;;;;;;7.80;99.90;;;;;;5123216;27;19923;-82
2021/12/16 03:20:59;;;;;;;;;;;7.80;99.90;;;;;;5125312;27;19923;-83
2021/12/16 03:23:55;;;;;;;;;;;7.70;99.90;;;;;;5123148;27;19929;-82
2021/12/16 03:37:12;;;;;;;;;;;7.70;99.90;;;;;;5139098;27;19948;-83
2021/12/16 03:39:38;;;;;;;;;;;7.60;99.90;;;;;;5122380;27;19929;-83
2021/12/16 03:42:04;;;;;;;;;;;7.50;99.90;;;;;;5139638;27;20427;-82
2021/12/16 03:44:48;;;;;;;;;;;7.50;99.90;;;;;;5122629;27;19927;-82
2021/12/16 03:47:14;;;;;;;;;;;7.50;99.90;;;;;;5124869;27;19923;-82
2021/12/16 03:49:40;;;;;;;;;;;7.50;99.90;;;;;;5119594;27;19931;-83
2021/12/16 03:52:07;;;;;;;;;;;7.50;99.90;;;;;;5118967;27;20018;-82
2021/12/16 03:54:35;;;;;;;;;;;7.50;99.90;;;;;;5101802;27;19924;-82
2021/12/16 03:57:02;;;;;;;;;;;7.50;99.90;;;;;;5121014;27;19924;-83
2021/12/16 03:59:29;;;;;;;;;;;7.60;99.90;;;;;;5122497;27;19927;-82
2021/12/16 04:01:56;;;;;;;;;;;7.50;99.90;;;;;;5121405;27;20279;-82
2021/12/16 04:04:21;;;;;;;;;;;7.50;99.90;;;;;;5122362;27;19927;-83
2021/12/16 04:06:47;;;;;;;;;;;7.50;99.90;;;;;;5139375;27;19923;-82
2021/12/16 04:09:14;;;;;;;;;;;7.60;99.90;;;;;;5139350;27;19923;-82
2021/12/16 04:11:43;;;;;;;;;;;7.60;99.90;;;;;;5108227;27;20061;-85
2021/12/16 04:14:11;;;;;;;;;;;7.70;99.90;;;;;;5101461;27;19988;-82
2021/12/16 04:16:39;;;;;;;;;;;7.70;99.90;;;;;;5113260;27;19930;-82
2021/12/16 04:19:09;;;;;;;;;;;7.70;99.90;;;;;;5138734;27;19945;-82
2021/12/16 04:21:43;;;;;;;;;;;7.70;99.90;;;;;;5139010;27;19923;-82
2021/12/16 04:24:10;;;;;;;;;;;7.60;99.90;;;;;;5122172;27;19923;-82
2021/12/16 04:26:36;;;;;;;;;;;7.60;99.90;;;;;;5138974;27;19929;-82
2021/12/16 04:29:04;;;;;;;;;;;7.50;99.90;;;;;;5121200;27;19931;-82
2021/12/16 04:31:29;;;;;;;;;;;7.60;99.90;;;;;;5105039;27;19923;-82
2021/12/16 04:33:55;;;;;;;;;;;7.60;99.90;;;;;;5136483;27;20375;-82
2021/12/16 04:36:21;;;;;;;;;;;7.60;99.90;;;;;;5121463;27;19974;-82
2021/12/16 04:38:47;;;;;;;;;;;7.60;99.90;;;;;;5137938;27;19923;-82
2021/12/16 04:41:13;;;;;;;;;;;7.50;99.90;;;;;;5121490;27;19923;-82
2021/12/16 04:43:40;;;;;;;;;;;7.40;99.90;;;;;;5121382;27;19962;-82
2021/12/16 04:46:08;;;;;;;;;;;7.30;99.90;;;;;;5104667;27;19923;-82
2021/12/16 04:48:33;;;;;;;;;;;7.30;99.90;;;;;;5138668;27;20009;-82
2021/12/16 04:50:59;;;;;;;;;;;7.20;99.90;;;;;;5136485;27;20336;-82
2021/12/16 04:53:25;;;;;;;;;;;7.10;99.90;;;;;;5103981;27;20017;-82
2021/12/16 04:55:50;;;;;;;;;;;7.10;99.90;;;;;;5117540;27;19923;-82
2021/12/16 04:58:16;;;;;;;;;;;7.10;99.90;;;;;;5101173;27;19923;-82
2021/12/16 05:00:41;;;;;;;;;;;7.10;99.90;;;;;;5121307;27;19931;-82
2021/12/16 05:03:07;;;;;;;;;;;7.00;99.90;;;;;;5120968;27;19923;-82
2021/12/16 05:05:32;;;;;;;;;;;7.10;99.90;;;;;;5138248;27;20006;-82
2021/12/16 05:07:58;;;;;;;;;;;7.00;99.90;;;;;;5103779;27;19946;-82
2021/12/16 05:10:23;;;;;;;;;;;6.90;99.90;;;;;;5121190;27;19929;-82
2021/12/16 05:12:51;;;;;;;;;;;7.00;99.90;;;;;;5120522;27;19930;-82
2021/12/16 05:15:19;;;;;;;;;;;6.80;99.90;;;;;;5121041;27;19937;-82
2021/12/16 05:17:49;;;;;;;;;;;6.80;99.90;;;;;;5121592;27;19923;-82
2021/12/16 05:20:20;;;;;;;;;;;6.80;99.90;;;;;;5137669;27;20010;-82
2021/12/16 05:27:56;;;;;;;;;;;6.80;99.90;;;;;;5137545;27;19923;-82
2021/12/16 05:30:21;;;;;;;;;;;6.80;99.90;;;;;;5137894;27;19975;-82
2021/12/16 05:32:47;;;;;;;;;;;6.70;99.90;;;;;;5120529;27;20004;-82
2021/12/16 05:35:15;;;;;;;;;;;6.70;99.90;;;;;;5137256;27;19924;-82
2021/12/16 05:37:43;;;;;;;;;;;6.70;99.90;;;;;;5099673;27;19923;-82
2021/12/16 05:40:09;;;;;;;;;;;6.70;99.90;;;;;;5112076;27;20043;-82
2021/12/16 05:42:35;;;;;;;;;;;6.70;99.90;;;;;;5117337;27;20010;-82
2021/12/16 05:45:00;;;;;;;;;;;6.60;99.90;;;;;;5116522;27;20410;-82
2021/12/16 05:47:26;;;;;;;;;;;6.60;99.90;;;;;;5130750;27;19923;-82
2021/12/16 05:49:51;;;;;;;;;;;6.60;99.90;;;;;;5103029;27;19926;-82
2021/12/16 05:52:17;;;;;;;;;;;6.70;99.90;;;;;;5103259;27;20067;-82
2021/12/16 05:54:43;;;;;;;;;;;6.70;99.90;;;;;;5137188;27;19923;-82
2021/12/16 05:57:08;;;;;;;;;;;6.70;99.90;;;;;;5136834;27;20410;-82
2021/12/16 05:59:34;;;;;;;;;;;6.70;99.90;;;;;;5137390;27;19976;-82
2021/12/16 06:01:59;;;;;;;;;;;6.70;99.90;;;;;;5120003;27;19923;-82
2021/12/16 06:04:25;;;;;;;;;;;6.70;99.90;;;;;;5120213;27;19974;-81
2021/12/16 06:06:51;;;;;;;;;;;6.70;99.90;;;;;;5137314;27;19923;-86
2021/12/16 06:09:16;;;;;;;;;;;6.70;99.90;;;;;;5136954;27;19923;-82
2021/12/16 06:11:44;;;;;;;;;;;6.70;99.90;;;;;;5120081;27;20413;-82
2021/12/16 06:14:18;;;;;;;;;;;6.80;99.90;;;;;;5136959;27;20131;-82
2021/12/16 06:27:37;;;;;;;;;;;6.90;99.90;;;;;;5116446;28;19938;-82
2021/12/16 06:30:07;;;;;;;;;;;7.00;99.90;;;;;;5118355;27;20360;-82
2021/12/16 06:32:33;;;;;;;;;;;7.10;99.90;;;;;;5136948;27;20260;-82
2021/12/16 06:34:58;;;;;;;;;;;7.10;99.90;;;;;;5121855;27;19930;-82
2021/12/16 06:37:24;;;;;;;;;;;7.10;99.90;;;;;;5120520;27;19924;-82
2021/12/16 06:39:50;;;;;;;;;;;7.20;99.90;;;;;;5110298;27;19931;-82
2021/12/16 06:42:16;;;;;;;;;;;7.20;99.90;;;;;;5120312;27;20331;-82
2021/12/16 06:44:49;;;;;;;;;;;7.20;99.90;;;;;;5086694;27;19927;-82
2021/12/16 06:47:20;;;;;;;;;;;7.20;99.90;;;;;;5104308;27;20283;-83
2021/12/16 06:49:48;;;;;;;;;;;7.20;99.90;;;;;;5119612;27;19924;-82
2021/12/16 06:52:17;;;;;;;;;;;7.20;99.90;;;;;;5106581;27;19930;-83
2021/12/16 06:57:23;;;;;;;;;;;7.10;99.90;;;;;;5140659;27;19976;-82
2021/12/16 07:00:05;;;;;;;;;;;7.00;99.90;;;;;;5140839;27;19945;-82
2021/12/16 07:03:18;;;;;;;;;;;7.00;99.90;;;;;;5128941;27;19923;-82
2021/12/16 07:05:21;;;;;;;;;;;7.00;99.90;;;;;;5123289;27;19923;-83
2021/12/16 07:07:47;;;;;;;;;;;7.20;99.90;;;;;;5111277;27;20283;-83
2021/12/16 07:10:13;;;;;;;;;;;7.20;99.90;;;;;;5139913;27;19923;-85
2021/12/16 07:12:46;;;;;;;;;;;7.10;99.90;;;;;;5117602;27;20014;-84
2021/12/16 07:15:13;;;;;;;;;;;7.10;99.90;;;;;;5106213;27;19979;-86
2021/12/16 07:17:39;;;;;;;;;;;7.00;99.90;;;;;;5138939;27;19924;-84
2021/12/16 07:20:07;;;;;;;;;;;7.10;99.90;;;;;;5115875;27;19972;-85
2021/12/16 07:22:34;;;;;;;;;;;7.10;99.90;;;;;;5122422;27;20061;-83
2021/12/16 07:25:00;;;;;;;;;;;7.10;99.90;;;;;;5136491;27;19923;-85
2021/12/16 07:27:25;;;;;;;;;;;7.20;99.90;;;;;;5119502;27;20368;-84
2021/12/16 07:29:51;;;;;;;;;;;7.20;99.90;;;;;;5136664;27;20058;-84
2021/12/16 07:32:16;;;;;;;;;;;7.20;99.90;;;;;;5119193;27;19930;-86
2021/12/16 07:34:42;;;;;;;;;;;7.20;99.90;;;;;;5102217;27;19924;-85
2021/12/16 07:37:08;;;;;;;;;;;7.20;99.90;;;;;;5119000;27;20371;-82
2021/12/16 07:39:42;;;;;;;;;;;7.10;99.90;;;;;;5115764;27;20006;-84
2021/12/16 07:42:10;;;;;;;;;;;7.10;99.90;;;;;;5115676;27;20019;-85
2021/12/16 07:44:36;;;;;;;;;;;7.00;99.90;;;;;;5122220;27;20292;-87
2021/12/16 07:47:05;;;;;;;;;;;7.00;99.90;;;;;;5138709;27;19933;-79
2021/12/16 07:49:32;;;;;;;;;;;7.00;99.90;;;;;;5139070;27;19924;-82
2021/12/16 07:51:59;;;;;;;;;;;7.00;99.90;;;;;;5139299;27;19930;-82
2021/12/16 07:54:24;;;;;;;;;;;7.00;99.90;;;;;;5139031;27;20283;-82
2021/12/16 07:56:52;;;;;;;;;;;7.00;99.90;;;;;;5122582;27;19923;-82
2021/12/16 07:59:18;;;;;;;;;;;7.10;99.90;;;;;;5121523;27;20303;-83
2021/12/16 08:01:45;;;;;;;;;;;7.20;99.90;;;;;;5116275;27;19927;-82
2021/12/16 08:04:19;;;;;;;;;;;7.10;99.90;;;;;;5133221;27;19923;-82
2021/12/16 08:06:45;;;;;;;;;;;7.20;99.90;;;;;;5105589;27;19927;-82
2021/12/16 08:09:11;;;;;;;;;;;7.20;99.90;;;;;;5097688;27;19976;-84
2021/12/16 08:11:38;;;;;;;;;;;7.10;99.90;;;;;;5139821;27;19923;-86
2021/12/16 08:14:03;;;;;;;;;;;7.10;99.90;;;;;;5102547;27;19978;-85
2021/12/16 08:16:30;;;;;;;;;;;7.10;99.90;;;;;;5102765;27;20403;-86
2021/12/16 08:18:55;;;;;;;;;;;7.00;99.90;;;;;;5119746;27;19923;-82
2021/12/16 08:21:24;;;;;;;;;;;7.00;99.90;;;;;;5121774;27;19967;-83
2021/12/16 08:23:50;;;;;;;;;;;6.90;99.90;;;;;;5121598;27;19923;-83
2021/12/16 08:26:16;;;;;;;;;;;6.80;99.90;;;;;;5116893;27;19927;-84
2021/12/16 08:28:42;;;;;;;;;;;6.80;99.90;;;;;;5117585;27;20333;-83
2021/12/16 08:31:08;;;;;;;;;;;6.80;99.90;;;;;;5121182;27;19923;-84
2021/12/16 08:33:34;;;;;;;;;;;6.80;99.90;;;;;;5129298;27;20030;-83
2021/12/16 08:36:00;;;;;;;;;;;6.80;99.90;;;;;;5101019;27;19969;-83
2021/12/16 08:38:26;;;;;;;;;;;6.80;99.90;;;;;;5100455;27;20737;-85
2021/12/16 08:40:53;;;;;;;;;;;6.70;99.90;;;;;;5102963;27;20014;-86
2021/12/16 08:43:19;;;;;;;;;;;6.70;99.90;;;;;;5131666;27;19976;-83
2021/12/16 08:45:45;;;;;;;;;;;6.60;99.90;;;;;;5100951;27;19927;-86
2021/12/16 08:48:11;;;;;;;;;;;6.70;99.90;;;;;;5083729;27;19945;-85
2021/12/16 08:50:39;;;;;;;;;;;6.60;99.90;;;;;;5100533;27;19924;-88
2021/12/16 08:53:06;;;;;;;;;;;6.50;99.90;;;;;;5112750;27;20301;-83
2021/12/16 08:55:33;;;;;;;;;;;6.50;99.90;;;;;;5137071;27;20387;-83
2021/12/16 08:57:59;;;;;;;;;;;6.40;99.90;;;;;;5118916;27;19938;-88
2021/12/16 09:00:28;;;;;;;;;;;6.50;99.90;;;;;;5120409;27;19923;-88
2021/12/16 09:02:54;;;;;;;;;;;6.50;99.90;;;;;;5115231;27;20397;-87
2021/12/16 09:05:20;;;;;;;;;;;6.60;99.90;;;;;;5101379;27;19954;-88
2021/12/16 09:07:48;;;;;;;;;;;6.60;99.90;;;;;;5084468;27;19923;-89
2021/12/16 09:10:15;;;;;;;;;;;6.60;99.90;;;;;;5119092;27;20008;-87
2021/12/16 09:15:15;;;;;;;;;;;6.70;99.90;;;;;;5128327;27;19930;-88
2021/12/16 09:17:41;;;;;;;;;;;6.70;99.90;;;;;;5117215;27;20364;-88
2021/12/16 09:20:07;;;;;;;;;;;6.80;99.90;;;;;;5110802;27;20295;-88
2021/12/16 09:22:32;;;;;;;;;;;6.90;99.90;;;;;;5120783;27;19923;-89
2021/12/16 09:24:58;;;;;;;;;;;6.90;99.90;;;;;;5120808;27;20309;-88
2021/12/16 09:27:24;;;;;;;;;;;7.00;99.90;;;;;;5100295;27;20006;-88
2021/12/16 09:29:50;;;;;;;;;;;7.10;99.90;;;;;;5138279;27;19919;-88
2021/12/16 09:32:16;;;;;;;;;;;7.20;99.90;;;;;;5137955;27;19932;-87
2021/12/16 09:34:43;;;;;;;;;;;7.30;99.90;;;;;;5120455;27;19927;-87
2021/12/16 09:37:11;;;;;;;;;;;7.40;99.90;;;;;;5119205;27;20219;-88
2021/12/16 09:39:37;;;;;;;;;;;7.40;99.90;;;;;;5120648;27;19919;-87
2021/12/16 09:42:06;;;;;;;;;;;7.50;99.90;;;;;;5137726;27;19984;-82
2021/12/16 09:44:31;;;;;;;;;;;7.50;99.90;;;;;;5135994;27;19926;-81
2021/12/16 09:46:58;;;;;;;;;;;7.60;99.90;;;;;;5120282;27;20051;-85
2021/12/16 09:49:23;;;;;;;;;;;7.60;99.90;;;;;;5136706;27;19997;-85
2021/12/16 09:51:51;;;;;;;;;;;7.60;99.90;;;;;;5135336;27;20338;-83
2021/12/16 09:54:18;;;;;;;;;;;7.70;99.90;;;;;;5119240;27;19919;-83
2021/12/16 09:56:46;;;;;;;;;;;7.70;99.90;;;;;;5115919;27;20279;-82
2021/12/16 09:59:13;;;;;;;;;;;7.70;99.90;;;;;;5118530;27;20037;-85
2021/12/16 10:01:40;;;;;;;;;;;7.80;99.90;;;;;;5098921;27;19919;-85
2021/12/16 10:04:07;;;;;;;;;;;7.80;99.90;;;;;;5128462;27;20351;-83
2021/12/16 10:06:34;;;;;;;;;;;7.90;99.90;;;;;;5112169;27;20011;-83
2021/12/16 10:09:01;;;;;;;;;;;7.90;99.90;;;;;;5129444;27;19927;-83
2021/12/16 10:11:27;;;;;;;;;;;7.90;99.90;;;;;;5117252;27;19919;-84
2021/12/16 10:14:04;;;;;;;;;;;7.90;99.90;;;;;;5112670;27;19926;-84
2021/12/16 10:19:16;;;;;;;;;;;8.00;99.90;;;;;;5131434;27;19975;-85
2021/12/16 10:21:43;;;;;;;;;;;8.00;99.90;;;;;;5102377;27;19923;-86
2021/12/16 10:24:22;;;;;;;;;;;8.00;99.90;;;;;;5108091;27;19919;-83
2021/12/16 10:27:03;;;;;;;;;;;8.00;99.90;;;;;;5116816;27;19926;-85
2021/12/16 10:29:39;;;;;;;;;;;8.10;99.90;;;;;;5115830;28;20432;-86
2021/12/16 10:32:05;;;;;;;;;;;8.10;99.90;;;;;;5115805;27;20340;-84
2021/12/16 10:34:31;;;;;;;;;;;8.20;99.90;;;;;;5111857;27;19967;-84
2021/12/16 10:36:59;;;;;;;;;;;8.20;99.90;;;;;;5110547;27;19920;-86
2021/12/16 10:39:27;;;;;;;;;;;8.20;99.90;;;;;;5115495;27;19985;-84
2021/12/16 10:42:04;;;;;;;;;;;8.30;99.90;;;;;;5132351;27;19919;-88
2021/12/16 10:44:32;;;;;;;;;;;8.30;99.90;;;;;;5118100;27;19926;-87
2021/12/16 10:47:03;;;;;;;;;;;8.40;99.90;;;;;;5119952;27;20009;-84
2021/12/16 10:49:31;;;;;;;;;;;8.40;99.90;;;;;;5133614;27;19919;-83
2021/12/16 10:51:58;;;;;;;;;;;8.40;99.90;;;;;;5136715;27;20255;-86
2021/12/16 10:54:25;;;;;;;;;;;8.50;99.90;;;;;;5136792;27;19919;-84
2021/12/16 10:56:53;;;;;;;;;;;8.50;99.90;;;;;;5136410;27;20327;-87
2021/12/16 10:59:21;;;;;;;;;;;8.60;99.90;;;;;;5118820;27;20359;-86
2021/12/16 11:01:52;;;;;;;;;;;8.60;99.90;;;;;;5130621;27;19965;-91
2021/12/16 11:04:23;;;;;;;;;;;8.70;99.90;;;;;;5133435;27;19964;-85
2021/12/16 11:06:54;;;;;;;;;;;8.70;99.90;;;;;;5135961;27;19926;-85
2021/12/16 11:09:24;;;;;;;;;;;8.80;99.90;;;;;;5120539;27;20062;-83
2021/12/16 11:12:09;;;;;;;;;;;8.80;99.90;;;;;;5139488;27;19964;-81
2021/12/16 11:14:35;;;;;;;;;;;8.90;99.90;;;;;;5126470;27;20002;-81
2021/12/16 11:17:03;;;;;;;;;;;9.00;99.90;;;;;;5107008;28;19927;-81
2021/12/16 11:19:46;;;;;;;;;;;9.00;99.90;;;;;;5117525;27;19922;-81
2021/12/16 11:22:13;;;;;;;;;;;9.10;99.90;;;;;;5123168;27;20311;-81
2021/12/16 11:24:39;;;;;;;;;;;9.10;99.90;;;;;;5139959;27;20343;-83
2021/12/16 11:27:23;;;;;;;;;;;9.20;99.90;;;;;;5123135;27;19926;-84
2021/12/16 11:29:49;;;;;;;;;;;9.20;99.90;;;;;;5139378;27;19919;-83
2021/12/16 11:32:34;;;;;;;;;;;9.30;99.90;;;;;;5133621;27;19929;-83
2021/12/16 11:35:00;;;;;;;;;;;9.40;99.90;;;;;;5134002;27;19931;-83
2021/12/16 11:37:25;;;;;;;;;;;9.50;99.90;;;;;;5133424;27;19978;-83
2021/12/16 11:39:51;;;;;;;;;;;9.50;99.90;;;;;;5131508;27;20209;-83
2021/12/16 11:42:25;;;;;;;;;;;9.60;99.90;;;;;;5122036;27;19973;-83
2021/12/16 11:44:52;;;;;;;;;;;9.50;99.90;;;;;;5119001;27;19992;-83
2021/12/16 11:47:20;;;;;;;;;;;9.60;99.90;;;;;;5129514;27;19930;-84
2021/12/16 11:49:47;;;;;;;;;;;9.50;99.90;;;;;;5120161;27;19927;-83
2021/12/16 11:52:15;;;;;;;;;;;9.60;99.90;;;;;;5127626;27;19927;-83
2021/12/16 11:54:46;;;;;;;;;;;9.60;99.90;;;;;;5112873;27;19930;-84
2021/12/16 11:57:21;;;;;;;;;;;9.60;99.90;;;;;;5118493;27;19974;-83
2021/12/16 12:00:05;;;;;;;;;;;9.60;99.90;;;;;;5137879;27;20332;-83
2021/12/16 12:02:32;;;;;;;;;;;9.60;99.90;;;;;;5119529;27;19946;-83
2021/12/16 12:05:13;;;;;;;;;;;9.60;99.90;;;;;;5121445;27;19924;-83
2021/12/16 12:07:39;;;;;;;;;;;9.60;99.90;;;;;;5116710;27;19967;-83
2021/12/16 12:10:05;;;;;;;;;;;9.60;99.90;;;;;;5136840;27;20435;-84
2021/12/16 12:12:40;;;;;;;;;;;9.60;99.90;;;;;;5103141;27;19927;-83
2021/12/16 12:15:09;;;;;;;;;;;9.60;99.90;;;;;;5113319;27;19923;-83
2021/12/16 12:17:50;;;;;;;;;;;9.60;99.90;;;;;;5101435;27;19924;-84
2021/12/16 12:20:16;;;;;;;;;;;9.70;99.90;;;;;;5117037;27;19936;-83
2021/12/16 12:22:42;;;;;;;;;;;9.70;99.90;;;;;;5114490;27;20283;-85
2021/12/16 12:25:07;;;;;;;;;;;9.60;99.90;;;;;;5113497;27;19924;-83
2021/12/16 12:27:33;;;;;;;;;;;9.70;99.90;;;;;;5118758;27;19930;-84
2021/12/16 12:30:00;;;;;;;;;;;9.70;99.90;;;;;;5116892;27;20397;-83
2021/12/16 12:32:30;;;;;;;;;;;9.70;99.90;;;;;;5119135;27;20295;-83
2021/12/16 12:34:58;;;;;;;;;;;9.70;99.90;;;;;;5115169;27;19923;-84
2021/12/16 12:37:26;;;;;;;;;;;9.60;99.90;;;;;;5132336;27;19923;-83
2021/12/16 12:39:54;;;;;;;;;;;9.70;99.90;;;;;;5133505;27;19930;-83
2021/12/16 12:42:20;;;;;;;;;;;9.60;99.90;;;;;;5137276;27;20119;-84
2021/12/16 12:44:45;;;;;;;;;;;9.60;99.90;;;;;;5132290;27;20533;-86
2021/12/16 12:47:13;;;;;;;;;;;9.60;99.90;;;;;;5116595;27;19978;-86
2021/12/16 12:49:40;;;;;;;;;;;9.60;99.90;;;;;;5107211;27;19988;-83
2021/12/16 12:52:16;;;;;;;;;;;9.60;99.90;;;;;;5102566;27;20018;-82
2021/12/16 12:54:45;;;;;;;;;;;9.50;99.90;;;;;;5111703;27;20373;-83
2021/12/16 12:57:24;;;;;;;;;;;9.60;99.90;;;;;;5117134;27;20358;-84
2021/12/16 12:59:50;;;;;;;;;;;9.60;99.90;;;;;;5116064;27;19930;-83
2021/12/16 13:02:17;;;;;;;;;;;9.60;99.90;;;;;;5113216;27;20283;-84
2021/12/16 13:04:49;;;;;;;;;;;9.60;99.90;;;;;;5136193;27;19927;-85
2021/12/16 13:07:15;;;;;;;;;;;9.60;99.90;;;;;;5119924;27;20260;-84
2021/12/16 13:09:53;;;;;;;;;;;9.60;99.90;;;;;;5136247;27;19923;-83
2021/12/16 13:12:25;;;;;;;;;;;9.60;99.90;;;;;;5137173;27;19978;-81
2021/12/16 13:14:53;;;;;;;;;;;9.60;99.90;;;;;;5135165;27;19927;-82
2021/12/16 13:23:30;;;;;;;;;;;9.50;99.90;;;;;;5095078;27;20299;-86
2021/12/16 13:31:07;;;;;;;;;;;9.40;99.90;;;;;;5134374;27;19935;-85
2021/12/16 13:33:38;;;;;;;;;;;9.50;99.90;;;;;;5126003;27;20018;-82
2021/12/16 13:36:13;;;;;;;;;;;9.40;99.90;;;;;;5135849;27;19923;-83
2021/12/16 13:38:43;;;;;;;;;;;9.40;99.90;;;;;;5118817;27;20030;-84
2021/12/16 13:41:10;;;;;;;;;;;9.40;99.90;;;;;;5131166;27;19927;-84
2021/12/16 13:43:37;;;;;;;;;;;9.30;99.90;;;;;;5114949;27;19971;-85
2021/12/16 14:03:17;;;;;;;;;;;9.30;99.90;;;;;;5123797;27;19923;-84
2021/12/16 14:06:30;;;;;;;;;;;9.30;99.90;;;;;;5107720;27;19984;-84
2021/12/16 14:08:34;;;;;;;;;;;9.30;99.90;;;;;;5117480;27;20356;-83
2021/12/16 14:11:04;;;;;;;;;;;9.20;99.90;;;;;;5133892;27;19988;-83
2021/12/16 14:16:28;;;;;;;;;;;9.20;99.90;;;;;;5133047;27;20279;-81
2021/12/16 14:25:18;;;;;;;;;;;9.10;99.90;;;;;;5133128;27;20303;-85
2021/12/16 14:36:12;;;;;;;;;;;9.00;99.90;;;;;;5125804;27;20355;-83
2021/12/16 14:41:24;;;;;;;;;;;8.90;99.90;;;;;;5112301;28;20002;-84
2021/12/16 14:45:14;;;;;;;;;;;8.90;99.90;;;;;;5111617;28;19931;-84
2021/12/16 14:47:29;;;;;;;;;;;8.90;99.90;;;;;;5123565;28;19924;-85
2021/12/16 14:49:56;;;;;;;;;;;8.80;99.90;;;;;;5102919;28;20027;-84
2021/12/16 14:52:27;;;;;;;;;;;8.80;99.90;;;;;;5112726;28;20297;-82
2021/12/16 14:54:57;;;;;;;;;;;8.80;99.90;;;;;;5127064;27;20437;-86
2021/12/16 14:57:25;;;;;;;;;;;8.80;99.90;;;;;;5114113;27;19927;-84
2021/12/16 14:59:51;;;;;;;;;;;8.70;99.90;;;;;;5109795;27;19924;-83
2021/12/16 15:02:17;;;;;;;;;;;8.70;99.90;;;;;;5115460;28;19923;-83
2021/12/16 15:04:43;;;;;;;;;;;8.70;99.90;;;;;;5105185;27;20011;-82
2021/12/16 15:07:11;;;;;;;;;;;8.70;99.90;;;;;;5113590;27;20054;-83
2021/12/16 15:09:39;;;;;;;;;;;8.70;99.90;;;;;;5116972;27;20061;-83
2021/12/16 15:15:13;;;;;;;;;;;8.60;99.90;;;;;;5128199;27;19928;-83
2021/12/16 15:37:53;;;;;;;;;;;8.40;99.90;;;;;;5133856;27;19930;-81
2021/12/16 15:40:36;;;;;;;;;;;8.40;99.90;;;;;;5117478;27;19923;-84
2021/12/16 15:43:03;;;;;;;;;;;8.40;99.90;;;;;;5118559;27;20378;-84
2021/12/16 15:45:32;;;;;;;;;;;8.40;99.90;;;;;;5101380;27;19923;-83
2021/12/16 15:48:01;;;;;;;;;;;8.40;99.90;;;;;;5100979;27;19930;-83
2021/12/16 15:50:29;;;;;;;;;;;8.40;99.90;;;;;;5114902;27;20328;-85
2021/12/16 15:52:55;;;;;;;;;;;8.40;99.90;;;;;;5138235;27;19966;-84
2021/12/16 15:55:32;;;;;;;;;;;8.40;99.90;;;;;;5124582;27;20036;-84
2021/12/16 15:57:59;;;;;;;;;;;8.40;99.90;;;;;;5110035;27;19930;-85
2021/12/16 16:00:25;;;;;;;;;;;8.50;99.90;;;;;;5112827;27;20364;-83
2021/12/16 16:02:51;;;;;;;;;;;8.50;99.90;;;;;;5121527;27;19966;-83
2021/12/16 16:05:16;;;;;;;;;;;8.50;99.90;;;;;;5139035;27;19923;-83
2021/12/16 16:07:42;;;;;;;;;;;8.50;99.90;;;;;;5120286;27;19927;-82
2021/12/16 16:10:09;;;;;;;;;;;8.50;99.90;;;;;;5137992;27;19931;-84
2021/12/16 16:12:34;;;;;;;;;;;8.50;99.90;;;;;;5121394;27;19977;-80
2021/12/16 16:15:16;;;;;;;;;;;8.50;99.90;;;;;;5137615;27;19972;-83
2021/12/16 16:17:53;;;;;;;;;;;8.60;99.90;;;;;;5132010;27;19923;-82
2021/12/16 16:20:19;;;;;;;;;;;8.60;99.90;;;;;;5132177;27;20354;-82
2021/12/16 16:22:46;;;;;;;;;;;8.60;99.90;;;;;;5115745;27;19923;-83
2021/12/16 16:25:11;;;;;;;;;;;8.60;99.90;;;;;;5116183;27;20442;-83
2021/12/16 16:27:37;;;;;;;;;;;8.60;99.90;;;;;;5109325;27;19930;-83
2021/12/16 16:30:05;;;;;;;;;;;8.50;99.90;;;;;;5135812;27;19924;-83
2021/12/16 16:32:51;;;;;;;;;;;8.60;99.90;;;;;;5123710;27;19930;-82
2021/12/16 16:35:16;;;;;;;;;;;8.60;99.90;;;;;;5129619;27;19930;-85
2021/12/16 16:37:42;;;;;;;;;;;8.60;99.90;;;;;;5110476;27;19924;-85
2021/12/16 16:40:10;;;;;;;;;;;8.60;99.90;;;;;;5115549;27;20424;-86
2021/12/16 16:42:38;;;;;;;;;;;8.60;99.90;;;;;;5113849;27;19931;-85
2021/12/16 16:45:04;;;;;;;;;;;8.50;99.90;;;;;;5118462;27;20026;-85
2021/12/16 16:47:50;;;;;;;;;;;8.50;99.90;;;;;;5124996;27;19923;-84
2021/12/16 16:50:17;;;;;;;;;;;8.50;99.90;;;;;;5113129;27;19966;-84
2021/12/16 16:52:44;;;;;;;;;;;8.40;99.90;;;;;;5137120;27;19970;-88
2021/12/16 16:55:18;;;;;;;;;;;8.40;99.90;;;;;;5119586;27;19923;-84
2021/12/16 16:57:48;;;;;;;;;;;8.40;99.90;;;;;;5127751;27;19935;-81
2021/12/16 17:00:19;;;;;;;;;;;8.40;99.90;;;;;;5127225;27;19927;-85
2021/12/16 17:03:07;;;;;;;;;;;8.30;99.90;;;;;;5115628;27;19923;-84
2021/12/16 17:05:35;;;;;;;;;;;8.30;99.90;;;;;;5119982;27;19927;-82
2021/12/16 17:08:05;;;;;;;;;;;8.40;99.90;;;;;;5123201;27;19971;-82
2021/12/16 17:10:40;;;;;;;;;;;8.30;99.90;;;;;;5116696;27;19927;-83
2021/12/16 17:13:05;;;;;;;;;;;8.30;99.90;;;;;;5100453;27;19930;-83
2021/12/16 17:18:23;;;;;;;;;;;8.30;99.90;;;;;;5112239;27;20386;-83
2021/12/16 17:20:50;;;;;;;;;;;8.30;99.90;;;;;;5113729;27;20010;-84
2021/12/16 17:23:16;;;;;;;;;;;8.40;99.90;;;;;;5099621;27;19923;-83
2021/12/16 17:25:42;;;;;;;;;;;8.40;99.90;;;;;;5111004;27;19934;-81
2021/12/16 17:28:08;;;;;;;;;;;8.30;99.90;;;;;;5105584;27;19927;-81
2021/12/16 17:30:35;;;;;;;;;;;8.40;99.90;;;;;;5110690;27;19977;-82
2021/12/16 17:33:01;;;;;;;;;;;8.40;99.90;;;;;;5136229;27;20045;-84
2021/12/16 17:35:30;;;;;;;;;;;8.40;99.90;;;;;;5116115;27;20009;-84
2021/12/16 17:38:01;;;;;;;;;;;8.30;99.90;;;;;;5133358;27;20052;-82
2021/12/16 17:40:32;;;;;;;;;;;8.40;99.90;;;;;;5106520;27;19988;-83
2021/12/16 17:43:00;;;;;;;;;;;8.40;99.90;;;;;;5132554;27;20014;-84
2021/12/16 17:45:30;;;;;;;;;;;8.40;99.90;;;;;;5133996;27;19923;-84
2021/12/16 17:47:56;;;;;;;;;;;8.40;99.90;;;;;;5130817;27;20007;-84
2021/12/16 17:50:28;;;;;;;;;;;8.50;99.90;;;;;;5098423;27;19927;-83
2021/12/16 17:52:55;;;;;;;;;;;8.40;99.90;;;;;;5099219;27;19923;-84
2021/12/16 17:55:24;;;;;;;;;;;8.40;99.90;;;;;;5116392;27;19930;-82
2021/12/16 17:57:54;;;;;;;;;;;8.50;99.90;;;;;;5119904;27;19945;-82
2021/12/16 18:00:23;;;;;;;;;;;8.50;99.90;;;;;;5129359;27;19923;-83
2021/12/16 18:02:49;;;;;;;;;;;8.50;99.90;;;;;;5116338;27;19930;-82
2021/12/16 18:05:15;;;;;;;;;;;8.50;99.90;;;;;;5099251;27;20433;-83
2021/12/16 18:07:41;;;;;;;;;;;8.50;99.90;;;;;;5097410;27;19923;-82
2021/12/16 18:10:08;;;;;;;;;;;8.50;99.90;;;;;;5118988;27;20296;-83
2021/12/16 18:12:33;;;;;;;;;;;8.50;99.90;;;;;;5118833;27;19927;-83
2021/12/16 18:15:03;;;;;;;;;;;8.60;99.90;;;;;;5092421;28;19930;-82
2021/12/16 18:17:32;;;;;;;;;;;8.70;99.90;;;;;;5131261;27;19973;-82
2021/12/16 18:19:58;;;;;;;;;;;8.60;99.90;;;;;;5110101;27;19923;-82
2021/12/16 18:22:35;;;;;;;;;;;8.60;99.90;;;;;;5136028;27;19923;-83
2021/12/16 18:25:09;;;;;;;;;;;8.50;99.90;;;;;;5117463;27;19930;-82